Time;durP1;ratioP1;P1;durP2;ratioP2;P2;SDS_P1;SDS_P2;PMS_P1;PMS_P2;Temp;Humidity;BMP_temperature;BMP_pressure;BME280_temperature;BME280_humidity;BME280_pressure;Samples;Min_cycle;Max_cycle;Signal;HPM_P1;HPM_P2
2022/08/15 00:04:56;;;;;;;1.63;1.45;;;;;;;;;;10457113;28;20067;-51
2022/08/15 00:09:57;;;;;;;2.50;1.48;;;;;;;;;;10467843;28;20508;-49
2022/08/15 00:14:58;;;;;;;1.60;1.50;;;;;;;;;;10467553;28;20039;-51
2022/08/15 00:19:58;;;;;;;2.72;1.65;;;;;;;;;;10418529;28;20032;-48
2022/08/15 00:24:59;;;;;;;1.95;1.38;;;;;;;;;;10448914;28;20040;-50
2022/08/15 00:30:03;;;;;;;1.40;1.30;;;;;;;;;;10455739;28;20041;-53
2022/08/15 00:35:35;;;;;;;3.00;1.65;;;;;;;;;;10443288;28;20030;-54
2022/08/15 00:41:39;;;;;;;10.60;1.67;;;;;;;;;;10440969;28;20116;-53
2022/08/15 00:45:53;;;;;;;3.38;1.60;;;;;;;;;;10456233;28;20033;-50
2022/08/15 00:50:53;;;;;;;1.40;1.30;;;;;;;;;;10481028;28;20039;-50
2022/08/15 00:55:56;;;;;;;3.72;1.80;;;;;;;;;;10436443;28;20040;-54
2022/08/15 01:00:57;;;;;;;2.95;1.58;;;;;;;;;;10458516;28;20036;-50
2022/08/15 01:06:01;;;;;;;1.73;1.60;;;;;;;;;;10467405;28;20053;-51
2022/08/15 01:11:15;;;;;;;1.42;1.30;;;;;;;;;;10452985;28;20029;-49
2022/08/15 01:16:16;;;;;;;1.63;1.42;;;;;;;;;;10439769;28;20485;-50
2022/08/15 01:22:17;;;;;;;1.50;1.40;;;;;;;;;;10437966;28;20029;-52
2022/08/15 01:27:21;;;;;;;1.58;1.48;;;;;;;;;;10351076;28;20026;-53
2022/08/15 01:32:22;;;;;;;1.50;1.35;;;;;;;;;;10321735;28;20076;-48
2022/08/15 01:37:24;;;;;;;1.90;1.38;;;;;;;;;;10352665;28;20125;-50
2022/08/15 01:42:32;;;;;;;3.40;1.80;;;;;;;;;;10334925;28;20041;-48
2022/08/15 01:47:57;;;;;;;1.42;1.33;;;;;;;;;;10349292;28;20037;-53
2022/08/15 01:53:17;;;;;;;1.35;1.23;;;;;;;;;;10376880;28;20052;-50
2022/08/15 01:58:19;;;;;;;4.03;1.45;;;;;;;;;;10418711;28;20040;-51
2022/08/15 02:03:21;;;;;;;5.25;1.75;;;;;;;;;;10454732;28;20029;-50
2022/08/15 02:08:23;;;;;;;2.45;1.60;;;;;;;;;;10375098;28;20117;-54
2022/08/15 02:13:24;;;;;;;1.45;1.35;;;;;;;;;;10363295;28;20032;-51
2022/08/15 02:18:25;;;;;;;1.40;1.30;;;;;;;;;;10374881;28;20389;-49
2022/08/15 02:23:26;;;;;;;1.58;1.45;;;;;;;;;;10367305;28;20040;-50
2022/08/15 02:28:27;;;;;;;3.22;1.55;;;;;;;;;;10374946;28;20357;-49
2022/08/15 02:33:28;;;;;;;1.80;1.60;;;;;;;;;;10370372;28;20394;-52
2022/08/15 02:38:31;;;;;;;2.10;1.52;;;;;;;;;;10382074;28;20041;-49
2022/08/15 02:43:32;;;;;;;1.40;1.30;;;;;;;;;;10363978;28;20121;-53
2022/08/15 02:48:32;;;;;;;2.88;1.38;;;;;;;;;;10374213;28;20025;-53
2022/08/15 02:53:34;;;;;;;1.33;1.23;;;;;;;;;;10365292;28;20038;-49
2022/08/15 02:58:36;;;;;;;1.30;1.20;;;;;;;;;;10387180;28;20444;-48
2022/08/15 03:03:46;;;;;;;2.10;1.45;;;;;;;;;;10397094;23;20059;-67
2022/08/15 03:08:47;;;;;;;2.00;1.33;;;;;;;;;;10501712;28;20375;-56
2022/08/15 03:13:48;;;;;;;1.35;1.27;;;;;;;;;;10528680;28;20020;-55
2022/08/15 03:18:49;;;;;;;1.70;1.60;;;;;;;;;;10562847;28;20482;-55
2022/08/15 03:23:50;;;;;;;1.70;1.60;;;;;;;;;;10556730;28;20030;-55
2022/08/15 03:28:51;;;;;;;1.40;1.30;;;;;;;;;;10557176;28;20386;-55
2022/08/15 03:33:51;;;;;;;1.50;1.40;;;;;;;;;;10551999;28;22305;-56
2022/08/15 03:38:52;;;;;;;1.33;1.23;;;;;;;;;;10560181;28;20093;-53
2022/08/15 03:43:53;;;;;;;4.43;1.50;;;;;;;;;;10552857;28;20051;-54
2022/08/15 03:48:56;;;;;;;1.45;1.30;;;;;;;;;;10567894;28;20028;-58
2022/08/15 03:53:59;;;;;;;1.40;1.30;;;;;;;;;;10567376;28;20039;-55
2022/08/15 03:59:00;;;;;;;2.20;1.60;;;;;;;;;;10567674;28;20019;-68
2022/08/15 04:04:01;;;;;;;1.55;1.45;;;;;;;;;;10527269;28;1130523;-55
2022/08/15 04:09:02;;;;;;;1.50;1.40;;;;;;;;;;10562680;28;20034;-55
2022/08/15 04:14:08;;;;;;;1.50;1.30;;;;;;;;;;10569316;28;20044;-54
2022/08/15 04:19:09;;;;;;;2.03;1.30;;;;;;;;;;10571089;28;20485;-55
2022/08/15 04:24:10;;;;;;;2.83;1.30;;;;;;;;;;10572615;28;20028;-55
2022/08/15 04:29:10;;;;;;;1.45;1.33;;;;;;;;;;10575264;28;20027;-54
2022/08/15 04:34:11;;;;;;;2.25;1.33;;;;;;;;;;10579107;28;20031;-57
2022/08/15 04:39:12;;;;;;;2.90;1.48;;;;;;;;;;10572950;27;20088;-57
2022/08/15 04:44:12;;;;;;;1.65;1.55;;;;;;;;;;10570207;28;20031;-54
2022/08/15 04:49:13;;;;;;;3.35;1.48;;;;;;;;;;10564325;28;20054;-57
2022/08/15 04:54:13;;;;;;;1.92;1.48;;;;;;;;;;10559537;28;20102;-54
2022/08/15 04:59:14;;;;;;;1.95;1.60;;;;;;;;;;10558106;28;20030;-53
2022/08/15 05:04:15;;;;;;;2.10;1.80;;;;;;;;;;10568386;28;20040;-55
2022/08/15 05:09:16;;;;;;;3.92;1.73;;;;;;;;;;10565715;28;20024;-54
2022/08/15 05:14:18;;;;;;;3.35;1.70;;;;;;;;;;10555240;28;20498;-55
2022/08/15 05:19:19;;;;;;;3.90;2.10;;;;;;;;;;10570706;28;20395;-59
2022/08/15 05:24:19;;;;;;;4.10;1.90;;;;;;;;;;10567343;28;20020;-54
2022/08/15 05:29:25;;;;;;;2.15;1.80;;;;;;;;;;10574181;28;20047;-55
2022/08/15 05:34:28;;;;;;;4.28;1.55;;;;;;;;;;10567453;28;20027;-55
2022/08/15 05:39:31;;;;;;;2.22;1.75;;;;;;;;;;10564916;28;20115;-55
2022/08/15 05:44:43;;;;;;;1.88;1.70;;;;;;;;;;10565659;28;20051;-55
2022/08/15 05:50:11;;;;;;;3.33;1.90;;;;;;;;;;10570366;28;20019;-68
2022/08/15 05:55:58;;;;;;;2.63;1.92;;;;;;;;;;10573645;28;20043;-55
2022/08/15 06:01:39;;;;;;;4.18;2.03;;;;;;;;;;10573544;28;20020;-56
2022/08/15 06:06:45;;;;;;;2.92;1.73;;;;;;;;;;10571450;28;20387;-53
2022/08/15 06:11:53;;;;;;;4.05;2.33;;;;;;;;;;10558909;28;20043;-54
2022/08/15 06:17:04;;;;;;;6.63;2.10;;;;;;;;;;10555815;28;20040;-54
2022/08/15 06:22:17;;;;;;;3.33;2.03;;;;;;;;;;10543607;28;20135;-55
2022/08/15 06:27:23;;;;;;;5.35;2.10;;;;;;;;;;10544692;28;20019;-55
2022/08/15 06:32:51;;;;;;;2.83;2.13;;;;;;;;;;10571736;28;20035;-55
2022/08/15 06:38:34;;;;;;;2.47;1.80;;;;;;;;;;10565539;28;20107;-52
2022/08/15 06:43:34;;;;;;;2.13;1.80;;;;;;;;;;10556720;28;20478;-54
2022/08/15 06:48:39;;;;;;;4.25;1.77;;;;;;;;;;10561248;28;20031;-54
2022/08/15 06:53:54;;;;;;;2.40;1.90;;;;;;;;;;10562196;28;20038;-53
2022/08/15 06:59:11;;;;;;;1.83;1.70;;;;;;;;;;10546260;28;20024;-55
2022/08/15 07:04:41;;;;;;;2.27;1.87;;;;;;;;;;10544229;28;20487;-55
2022/08/15 07:10:02;;;;;;;3.00;1.90;;;;;;;;;;10529849;28;20040;-54
2022/08/15 07:15:05;;;;;;;2.00;1.80;;;;;;;;;;10553822;28;20032;-54
2022/08/15 07:20:07;;;;;;;2.90;1.80;;;;;;;;;;10560037;28;20410;-53
2022/08/15 07:25:16;;;;;;;5.45;1.83;;;;;;;;;;10573246;28;20034;-55
2022/08/15 07:30:20;;;;;;;1.70;1.50;;;;;;;;;;10561286;28;20038;-54
2022/08/15 07:35:34;;;;;;;2.10;1.70;;;;;;;;;;10570958;28;20100;-54
2022/08/15 07:40:38;;;;;;;2.47;1.50;;;;;;;;;;10549047;28;20477;-54
2022/08/15 07:45:41;;;;;;;1.80;1.45;;;;;;;;;;10568505;28;20032;-52
2022/08/15 07:50:44;;;;;;;1.73;1.58;;;;;;;;;;10573518;28;20270;-54
2022/08/15 07:56:17;;;;;;;1.58;1.48;;;;;;;;;;10561785;28;20032;-54
2022/08/15 08:01:31;;;;;;;2.58;1.60;;;;;;;;;;10527616;28;20543;-53
2022/08/15 08:06:52;;;;;;;1.83;1.70;;;;;;;;;;10549456;28;20082;-55
2022/08/15 08:12:05;;;;;;;3.28;1.60;;;;;;;;;;10555967;28;20035;-64
2022/08/15 08:17:36;;;;;;;1.95;1.60;;;;;;;;;;10556999;28;20534;-55
2022/08/15 08:22:52;;;;;;;1.42;1.33;;;;;;;;;;10569190;28;20027;-54
2022/08/15 08:28:30;;;;;;;1.65;1.48;;;;;;;;;;10548010;28;20027;-53
2022/08/15 08:34:10;;;;;;;1.63;1.52;;;;;;;;;;10548234;28;20419;-53
2022/08/15 08:39:43;;;;;;;1.88;1.48;;;;;;;;;;10570136;28;20383;-54
2022/08/15 08:45:07;;;;;;;2.00;1.60;;;;;;;;;;10553570;28;20410;-54
2022/08/15 08:50:39;;;;;;;1.58;1.45;;;;;;;;;;10561323;28;20032;-55
2022/08/15 08:56:16;;;;;;;1.65;1.50;;;;;;;;;;10565516;28;20024;-57
2022/08/15 09:01:24;;;;;;;2.67;1.57;;;;;;;;;;10565468;28;20084;-56
2022/08/15 09:06:31;;;;;;;2.60;1.63;;;;;;;;;;10560039;28;20100;-55
2022/08/15 09:11:55;;;;;;;2.50;1.47;;;;;;;;;;10554798;28;20055;-55
2022/08/15 09:17:07;;;;;;;3.10;1.50;;;;;;;;;;10559066;28;20027;-53
2022/08/15 09:22:08;;;;;;;2.33;1.50;;;;;;;;;;10567796;28;20390;-55
2022/08/15 09:27:50;;;;;;;1.60;1.50;;;;;;;;;;10578115;28;20409;-55
2022/08/15 09:33:18;;;;;;;1.65;1.50;;;;;;;;;;10540899;28;20043;-55
2022/08/15 09:38:43;;;;;;;1.70;1.60;;;;;;;;;;10576957;28;20551;-53
2022/08/15 09:43:51;;;;;;;1.70;1.50;;;;;;;;;;10548533;28;20478;-54
2022/08/15 09:49:35;;;;;;;2.42;1.80;;;;;;;;;;10560336;28;20107;-54
2022/08/15 09:54:54;;;;;;;1.73;1.50;;;;;;;;;;10563916;28;20110;-54
2022/08/15 10:00:17;;;;;;;2.88;1.70;;;;;;;;;;10574425;28;20037;-54
2022/08/15 10:05:21;;;;;;;2.58;1.73;;;;;;;;;;10554982;28;20119;-53
2022/08/15 10:10:51;;;;;;;1.52;1.40;;;;;;;;;;10574944;28;20073;-54
2022/08/15 10:15:53;;;;;;;1.52;1.42;;;;;;;;;;10557330;28;20080;-54
2022/08/15 10:21:30;;;;;;;1.70;1.60;;;;;;;;;;10561059;28;20035;-55
2022/08/15 10:26:34;;;;;;;2.15;1.33;;;;;;;;;;10554280;28;20159;-55
2022/08/15 10:31:58;;;;;;;1.70;1.50;;;;;;;;;;10564564;28;20403;-55
2022/08/15 10:37:29;;;;;;;1.63;1.52;;;;;;;;;;10553185;28;20058;-54
2022/08/15 10:42:47;;;;;;;1.50;1.40;;;;;;;;;;10567196;28;20027;-54
2022/08/15 10:48:25;;;;;;;1.50;1.40;;;;;;;;;;10559417;28;20107;-54
2022/08/15 10:53:59;;;;;;;1.70;1.60;;;;;;;;;;10554060;28;20023;-54
2022/08/15 10:59:19;;;;;;;3.20;1.50;;;;;;;;;;10552766;28;20019;-55
2022/08/15 11:04:37;;;;;;;2.22;1.60;;;;;;;;;;10559866;28;20040;-53
2022/08/15 11:09:37;;;;;;;1.70;1.60;;;;;;;;;;10555235;28;20028;-55
2022/08/15 11:14:43;;;;;;;1.80;1.50;;;;;;;;;;10553953;28;20429;-54
2022/08/15 11:19:49;;;;;;;1.98;1.77;;;;;;;;;;10550965;28;20086;-54
2022/08/15 11:25:07;;;;;;;1.60;1.42;;;;;;;;;;10570719;28;20088;-55
2022/08/15 11:30:19;;;;;;;1.48;1.38;;;;;;;;;;10562792;28;20360;-55
2022/08/15 11:35:29;;;;;;;1.42;1.33;;;;;;;;;;10548850;28;20088;-55
2022/08/15 11:40:38;;;;;;;2.28;1.60;;;;;;;;;;10557894;28;20024;-55
2022/08/15 11:45:45;;;;;;;1.85;1.75;;;;;;;;;;10572481;28;20059;-55
2022/08/15 11:51:06;;;;;;;1.58;1.48;;;;;;;;;;10559679;28;20080;-56
2022/08/15 11:56:07;;;;;;;1.60;1.50;;;;;;;;;;10546957;28;20270;-54
2022/08/15 12:01:31;;;;;;;1.50;1.40;;;;;;;;;;10571202;28;20024;-57
2022/08/15 12:06:37;;;;;;;1.50;1.40;;;;;;;;;;10547409;28;20054;-54
2022/08/15 12:11:48;;;;;;;1.95;1.40;;;;;;;;;;10551354;28;20030;-54
2022/08/15 12:17:01;;;;;;;1.90;1.70;;;;;;;;;;10556689;28;20073;-55
2022/08/15 12:22:24;;;;;;;2.13;1.60;;;;;;;;;;10576481;28;20481;-55
2022/08/15 12:27:25;;;;;;;1.60;1.50;;;;;;;;;;10568122;28;20023;-54
2022/08/15 12:32:25;;;;;;;1.52;1.42;;;;;;;;;;10566643;27;20023;-55
2022/08/15 12:37:28;;;;;;;1.73;1.52;;;;;;;;;;10568456;28;20023;-55
2022/08/15 12:42:32;;;;;;;1.60;1.50;;;;;;;;;;10548035;28;20031;-55
2022/08/15 12:47:33;;;;;;;2.25;1.60;;;;;;;;;;10564907;28;20035;-55
2022/08/15 12:52:36;;;;;;;2.00;1.55;;;;;;;;;;10575285;28;20106;-55
2022/08/15 12:57:37;;;;;;;1.58;1.40;;;;;;;;;;10567304;28;20467;-52
2022/08/15 13:02:39;;;;;;;1.80;1.70;;;;;;;;;;10565490;28;20023;-56
2022/08/15 13:07:39;;;;;;;1.55;1.40;;;;;;;;;;10564629;28;20048;-54
2022/08/15 13:12:40;;;;;;;1.85;1.70;;;;;;;;;;10564671;28;20032;-56
2022/08/15 13:17:40;;;;;;;3.30;1.90;;;;;;;;;;10564392;28;20358;-64
2022/08/15 13:28:00;;;;;;;2.45;1.60;;;;;;;;;;10577937;28;20065;-55
2022/08/15 13:33:01;;;;;;;2.10;1.83;;;;;;;;;;10563651;28;20028;-55
2022/08/15 13:38:02;;;;;;;1.70;1.58;;;;;;;;;;10565868;28;20031;-56
2022/08/15 13:43:03;;;;;;;1.60;1.50;;;;;;;;;;10563270;28;20372;-55
2022/08/15 13:48:07;;;;;;;1.67;1.58;;;;;;;;;;10578380;28;20024;-56
2022/08/15 13:53:08;;;;;;;1.63;1.52;;;;;;;;;;10555228;28;20032;-55
2022/08/15 13:58:09;;;;;;;1.98;1.75;;;;;;;;;;10569855;28;20027;-55
2022/08/15 14:03:12;;;;;;;1.67;1.58;;;;;;;;;;10573284;28;20034;-56
2022/08/15 14:08:12;;;;;;;1.42;1.33;;;;;;;;;;10547409;28;20039;-55
2022/08/15 14:13:15;;;;;;;1.60;1.50;;;;;;;;;;10555758;28;20032;-56
2022/08/15 14:18:16;;;;;;;1.63;1.52;;;;;;;;;;10565670;28;20361;-55
2022/08/15 14:23:20;;;;;;;2.60;1.80;;;;;;;;;;10559924;28;20030;-55
2022/08/15 14:28:21;;;;;;;1.85;1.70;;;;;;;;;;10574722;28;20030;-56
2022/08/15 14:33:26;;;;;;;1.70;1.60;;;;;;;;;;10576161;28;20028;-55
2022/08/15 14:38:30;;;;;;;1.70;1.60;;;;;;;;;;10561717;27;20424;-53
2022/08/15 14:43:31;;;;;;;1.80;1.70;;;;;;;;;;10573934;28;20063;-55
2022/08/15 14:48:32;;;;;;;1.73;1.63;;;;;;;;;;10555566;28;20051;-54
2022/08/15 14:53:33;;;;;;;4.82;1.92;;;;;;;;;;10557265;28;20024;-54
2022/08/15 14:58:35;;;;;;;2.25;1.70;;;;;;;;;;10571592;28;20032;-55
2022/08/15 15:03:35;;;;;;;2.28;1.85;;;;;;;;;;10561830;28;20031;-54
2022/08/15 15:08:40;;;;;;;2.20;1.60;;;;;;;;;;10538371;28;20020;-69
2022/08/15 15:13:43;;;;;;;2.28;1.67;;;;;;;;;;10565173;28;20020;-66
2022/08/15 15:18:44;;;;;;;3.25;1.60;;;;;;;;;;10565668;28;20080;-67
2022/08/15 15:23:49;;;;;;;2.92;1.80;;;;;;;;;;10559111;28;20103;-69
2022/08/15 15:28:49;;;;;;;1.65;1.55;;;;;;;;;;10573374;28;20425;-67
2022/08/15 15:33:51;;;;;;;1.70;1.60;;;;;;;;;;10571346;28;20031;-68
2022/08/15 15:38:59;;;;;;;2.13;1.67;;;;;;;;;;10547248;28;20524;-67
2022/08/15 15:44:00;;;;;;;2.08;1.70;;;;;;;;;;10558475;28;20040;-69
2022/08/15 15:49:03;;;;;;;2.53;1.75;;;;;;;;;;10572029;28;20024;-69
2022/08/15 15:54:05;;;;;;;3.15;1.70;;;;;;;;;;10546913;28;20032;-69
2022/08/15 15:59:06;;;;;;;3.13;1.60;;;;;;;;;;10568454;27;20017;-69
2022/08/15 16:04:07;;;;;;;2.42;1.98;;;;;;;;;;10553622;28;20047;-60
2022/08/15 16:09:09;;;;;;;1.85;1.73;;;;;;;;;;10552823;28;20067;-68
2022/08/15 16:14:27;;;;;;;2.00;1.90;;;;;;;;;;10567534;28;20034;-67
2022/08/15 16:19:54;;;;;;;1.67;1.55;;;;;;;;;;10579726;28;20059;-68
2022/08/15 16:25:14;;;;;;;3.37;1.93;;;;;;;;;;10552646;28;20382;-68
2022/08/15 16:30:24;;;;;;;1.73;1.63;;;;;;;;;;10542167;28;20024;-66
2022/08/15 16:35:50;;;;;;;3.38;1.90;;;;;;;;;;10579138;28;20516;-68
2022/08/15 16:41:06;;;;;;;1.35;1.25;;;;;;;;;;10558719;28;20035;-69
2022/08/15 16:46:20;;;;;;;1.75;1.60;;;;;;;;;;10553075;28;20081;-69
2022/08/15 16:51:32;;;;;;;1.67;1.58;;;;;;;;;;10552294;28;20016;-68
2022/08/15 16:57:04;;;;;;;5.63;1.90;;;;;;;;;;10559622;28;20028;-67
2022/08/15 17:03:10;;;;;;;2.40;1.52;;;;;;;;;;10579120;28;20114;-69
2022/08/15 17:08:44;;;;;;;3.77;1.77;;;;;;;;;;10541898;27;20044;-69
2022/08/15 17:14:21;;;;;;;2.20;1.67;;;;;;;;;;10565593;28;20591;-69
2022/08/15 17:19:59;;;;;;;2.08;1.45;;;;;;;;;;10564519;28;20023;-66
2022/08/15 17:25:17;;;;;;;1.90;1.60;;;;;;;;;;10560891;28;20034;-69
2022/08/15 17:30:26;;;;;;;2.72;1.77;;;;;;;;;;10562557;28;20028;-70
2022/08/15 17:35:27;;;;;;;4.85;2.00;;;;;;;;;;10573738;28;20019;-68
2022/08/15 17:40:36;;;;;;;3.70;1.90;;;;;;;;;;10565385;28;20015;-64
2022/08/15 17:45:39;;;;;;;1.50;1.40;;;;;;;;;;10563343;28;20031;-67
2022/08/15 17:50:47;;;;;;;2.55;2.08;;;;;;;;;;10576496;28;20027;-66
2022/08/15 17:56:02;;;;;;;1.52;1.42;;;;;;;;;;10561935;28;20020;-68
2022/08/15 18:01:03;;;;;;;3.80;1.58;;;;;;;;;;10577307;28;20032;-66
2022/08/15 18:06:04;;;;;;;2.20;1.50;;;;;;;;;;10561383;28;20522;-67
2022/08/15 18:11:05;;;;;;;2.13;1.50;;;;;;;;;;10563323;28;20020;-66
2022/08/15 18:16:06;;;;;;;1.98;1.80;;;;;;;;;;10562853;28;20036;-66
2022/08/15 18:21:19;;;;;;;1.52;1.42;;;;;;;;;;10549269;27;20024;-67
2022/08/15 18:26:27;;;;;;;2.72;1.90;;;;;;;;;;10562879;28;20327;-65
2022/08/15 18:31:36;;;;;;;2.10;1.55;;;;;;;;;;10577122;28;20031;-67
2022/08/15 18:36:50;;;;;;;2.00;1.67;;;;;;;;;;10548216;28;20406;-67
2022/08/15 18:41:52;;;;;;;1.88;1.50;;;;;;;;;;10560242;28;20024;-69
2022/08/15 18:47:06;;;;;;;2.03;1.80;;;;;;;;;;10571712;28;20543;-70
2022/08/15 18:52:10;;;;;;;2.65;2.00;;;;;;;;;;10562676;28;20051;-67
2022/08/15 18:57:11;;;;;;;2.17;1.90;;;;;;;;;;10561884;28;20126;-68
2022/08/15 19:02:31;;;;;;;2.20;1.90;;;;;;;;;;10570888;28;20026;-69
2022/08/15 19:07:52;;;;;;;2.00;1.80;;;;;;;;;;10558850;28;20805;-67
2022/08/15 19:13:06;;;;;;;2.97;1.88;;;;;;;;;;10569164;28;20500;-66
2022/08/15 19:18:53;;;;;;;2.30;2.10;;;;;;;;;;10564469;28;20030;-68
2022/08/15 19:23:58;;;;;;;3.20;2.13;;;;;;;;;;10519048;28;20040;-67
2022/08/15 19:29:33;;;;;;;4.70;2.28;;;;;;;;;;10564266;28;20451;-67
2022/08/15 19:34:58;;;;;;;3.45;2.13;;;;;;;;;;10546246;28;20028;-69
2022/08/15 19:40:23;;;;;;;2.20;2.00;;;;;;;;;;10553308;28;20273;-64
2022/08/15 19:45:46;;;;;;;4.32;2.47;;;;;;;;;;10548535;28;20032;-68
2022/08/15 19:56:51;;;;;;;2.35;2.15;;;;;;;;;;10550080;28;20166;-68
2022/08/15 20:02:53;;;;;;;2.33;2.13;;;;;;;;;;10558122;28;20024;-69
2022/08/15 20:08:18;;;;;;;3.38;2.30;;;;;;;;;;10452600;28;20471;-69
2022/08/15 20:13:41;;;;;;;3.70;2.65;;;;;;;;;;10418822;28;20064;-69
2022/08/15 20:18:57;;;;;;;2.92;2.42;;;;;;;;;;10441025;28;20045;-67
2022/08/15 20:24:30;;;;;;;3.13;2.45;;;;;;;;;;10437367;28;20103;-67
2022/08/15 20:29:56;;;;;;;4.13;2.35;;;;;;;;;;10437202;28;20114;-67
2022/08/15 20:35:09;;;;;;;3.22;2.67;;;;;;;;;;10443858;28;20043;-65
2022/08/15 20:40:16;;;;;;;4.85;2.72;;;;;;;;;;10467590;28;20093;-67
2022/08/15 20:45:26;;;;;;;3.00;2.13;;;;;;;;;;10579817;27;20198;-62
2022/08/15 20:50:28;;;;;;;6.75;2.80;;;;;;;;;;10565461;28;20509;-65
2022/08/15 20:55:38;;;;;;;3.92;2.35;;;;;;;;;;10558922;28;20035;-69
2022/08/15 21:01:19;;;;;;;2.30;2.03;;;;;;;;;;10561983;28;20473;-68
2022/08/15 21:06:45;;;;;;;3.72;2.20;;;;;;;;;;10555694;28;20054;-72
2022/08/15 21:11:49;;;;;;;4.30;2.00;;;;;;;;;;10576785;28;20359;-69
2022/08/15 21:17:35;;;;;;;3.78;2.35;;;;;;;;;;10568521;28;20055;-67
2022/08/15 21:23:13;;;;;;;6.97;2.40;;;;;;;;;;10579218;28;20031;-63
2022/08/15 21:28:25;;;;;;;4.47;2.25;;;;;;;;;;10565325;28;20103;-70
2022/08/15 21:33:49;;;;;;;5.57;2.25;;;;;;;;;;10550266;27;20041;-66
2022/08/15 21:39:07;;;;;;;11.05;2.50;;;;;;;;;;10535959;28;20063;-71
2022/08/15 21:44:12;;;;;;;3.70;2.15;;;;;;;;;;10572601;28;20038;-66
2022/08/15 21:49:32;;;;;;;2.17;1.90;;;;;;;;;;10563593;28;20024;-71
2022/08/15 21:55:07;;;;;;;4.05;2.47;;;;;;;;;;10575295;28;20422;-67
2022/08/15 22:00:22;;;;;;;4.20;2.25;;;;;;;;;;10565315;28;20173;-70
2022/08/15 22:05:37;;;;;;;7.47;2.30;;;;;;;;;;10557588;28;20048;-70
2022/08/15 22:10:39;;;;;;;4.05;2.38;;;;;;;;;;10562501;28;20108;-70
2022/08/15 22:15:40;;;;;;;5.18;1.92;;;;;;;;;;10552058;28;20049;-71
2022/08/15 22:20:41;;;;;;;2.47;2.00;;;;;;;;;;10552346;28;20078;-70
2022/08/15 22:25:47;;;;;;;3.33;1.90;;;;;;;;;;10568708;28;20031;-70
2022/08/15 22:30:50;;;;;;;6.28;2.03;;;;;;;;;;10574327;28;20127;-69
2022/08/15 22:35:51;;;;;;;3.42;1.80;;;;;;;;;;10574989;28;20085;-70
2022/08/15 22:40:52;;;;;;;1.92;1.55;;;;;;;;;;10574951;28;20034;-70
2022/08/15 22:46:12;;;;;;;4.15;1.67;;;;;;;;;;10560361;28;20027;-70
2022/08/15 22:51:22;;;;;;;2.17;1.70;;;;;;;;;;10574344;28;20035;-65
2022/08/15 22:56:24;;;;;;;1.48;1.38;;;;;;;;;;10536603;28;20467;-69
2022/08/15 23:01:37;;;;;;;5.03;1.73;;;;;;;;;;10560433;28;20031;-59
2022/08/15 23:06:56;;;;;;;3.40;1.75;;;;;;;;;;10547033;28;20112;-66
2022/08/15 23:12:00;;;;;;;2.30;1.85;;;;;;;;;;10547685;28;20024;-68
2022/08/15 23:17:34;;;;;;;4.60;1.63;;;;;;;;;;10544161;28;20595;-65
2022/08/15 23:22:37;;;;;;;6.60;1.60;;;;;;;;;;10532623;28;20047;-70
2022/08/15 23:27:40;;;;;;;2.13;1.60;;;;;;;;;;10551213;28;20032;-67
2022/08/15 23:32:41;;;;;;;1.77;1.52;;;;;;;;;;10544347;28;20024;-70
2022/08/15 23:37:46;;;;;;;1.52;1.33;;;;;;;;;;10565700;28;20027;-67
2022/08/15 23:42:52;;;;;;;1.45;1.35;;;;;;;;;;10565057;28;20153;-70
2022/08/15 23:47:53;;;;;;;4.30;1.73;;;;;;;;;;10561786;28;20020;-68
2022/08/15 23:52:56;;;;;;;3.80;1.60;;;;;;;;;;10562511;28;20023;-71
2022/08/15 23:57:59;;;;;;;2.03;1.27;;;;;;;;;;10569397;28;20436;-70
